Time;durP1;ratioP1;P1;durP2;ratioP2;P2;SDS_P1;SDS_P2;PMS_P1;PMS_P2;Temp;Humidity;BMP_temperature;BMP_pressure;BME280_temperature;BME280_humidity;BME280_pressure;Samples;Min_cycle;Max_cycle;Signal;HPM_P1;HPM_P2
2022/05/09 00:01:34;;;;;;;3.80;1.85;;;;;;;;;;5046133;28;20577;-82
2022/05/09 00:04:01;;;;;;;3.30;1.80;;;;;;;;;;5048254;28;20195;-81
2022/05/09 00:06:29;;;;;;;4.45;1.52;;;;;;;;;;5049219;28;20265;-82
2022/05/09 00:08:56;;;;;;;3.45;1.63;;;;;;;;;;5046252;28;20194;-83
2022/05/09 00:11:24;;;;;;;3.30;1.40;;;;;;;;;;5038929;28;20230;-83
2022/05/09 00:13:51;;;;;;;1.85;1.38;;;;;;;;;;5044640;28;20202;-84
2022/05/09 00:16:18;;;;;;;5.75;1.63;;;;;;;;;;5034503;28;20215;-85
2022/05/09 00:18:45;;;;;;;2.75;1.92;;;;;;;;;;5040588;28;20199;-84
2022/05/09 00:21:12;;;;;;;4.53;2.42;;;;;;;;;;5046975;28;20210;-84
2022/05/09 00:23:41;;;;;;;3.13;1.30;;;;;;;;;;5042004;28;20203;-83
2022/05/09 00:26:08;;;;;;;3.15;1.80;;;;;;;;;;5039033;28;20207;-84
2022/05/09 00:28:35;;;;;;;3.67;1.75;;;;;;;;;;5050422;28;20252;-84
2022/05/09 00:31:02;;;;;;;2.53;2.33;;;;;;;;;;5043054;28;20211;-85
2022/05/09 00:33:29;;;;;;;3.53;2.20;;;;;;;;;;5032454;28;20200;-84
2022/05/09 00:35:56;;;;;;;3.92;2.15;;;;;;;;;;5041759;28;20199;-85
2022/05/09 00:38:24;;;;;;;2.92;1.88;;;;;;;;;;5044533;28;20566;-82
2022/05/09 00:43:40;;;;;;;5.07;1.92;;;;;;;;;;5039609;28;20200;-84
2022/05/09 00:46:08;;;;;;;3.22;1.73;;;;;;;;;;5041722;28;20211;-85
2022/05/09 00:48:36;;;;;;;2.20;1.50;;;;;;;;;;5043999;28;20281;-85
2022/05/09 00:51:04;;;;;;;4.20;1.75;;;;;;;;;;5045445;28;20249;-86
2022/05/09 00:53:32;;;;;;;3.58;2.08;;;;;;;;;;5047621;28;20203;-85
2022/05/09 00:56:02;;;;;;;3.13;1.50;;;;;;;;;;5035406;28;20196;-85
2022/05/09 00:58:32;;;;;;;2.47;1.70;;;;;;;;;;5038138;28;20219;-84
2022/05/09 01:01:00;;;;;;;2.58;1.58;;;;;;;;;;5040512;28;20219;-86
2022/05/09 01:03:30;;;;;;;6.38;1.67;;;;;;;;;;5048443;28;20569;-84
2022/05/09 01:05:57;;;;;;;7.90;1.70;;;;;;;;;;5047132;28;20210;-82
2022/05/09 01:08:25;;;;;;;4.15;2.10;;;;;;;;;;5043902;28;20205;-82
2022/05/09 01:10:53;;;;;;;1.88;1.75;;;;;;;;;;5047884;28;20190;-82
2022/05/09 01:13:24;;;;;;;3.95;2.13;;;;;;;;;;5041595;28;20734;-82
2022/05/09 01:15:53;;;;;;;1.70;1.45;;;;;;;;;;5047463;28;20638;-82
2022/05/09 01:18:21;;;;;;;4.97;1.67;;;;;;;;;;5043896;28;20232;-82
2022/05/09 01:20:48;;;;;;;4.30;2.00;;;;;;;;;;5045828;28;20233;-83
2022/05/09 01:23:17;;;;;;;3.10;1.55;;;;;;;;;;5043103;28;20198;-82
2022/05/09 01:25:44;;;;;;;4.57;1.90;;;;;;;;;;5048288;28;20208;-81
2022/05/09 01:28:12;;;;;;;4.72;2.00;;;;;;;;;;5046768;28;20192;-81
2022/05/09 01:30:43;;;;;;;1.85;1.58;;;;;;;;;;5044935;28;20214;-81
2022/05/09 01:33:13;;;;;;;2.33;1.65;;;;;;;;;;5038188;28;20191;-80
2022/05/09 01:35:45;;;;;;;2.70;1.85;;;;;;;;;;5045244;28;20203;-81
2022/05/09 01:38:16;;;;;;;4.07;1.83;;;;;;;;;;5042195;28;20199;-81
2022/05/09 01:40:44;;;;;;;3.97;2.22;;;;;;;;;;5052936;28;20574;-81
2022/05/09 01:43:11;;;;;;;2.85;2.03;;;;;;;;;;5048220;28;20207;-81
2022/05/09 01:45:38;;;;;;;7.90;2.10;;;;;;;;;;5044076;28;20198;-80
2022/05/09 01:50:50;;;;;;;2.92;2.03;;;;;;;;;;5039106;28;20191;-81
2022/05/09 01:53:17;;;;;;;6.32;2.42;;;;;;;;;;5038034;28;20322;-80
2022/05/09 01:55:46;;;;;;;2.10;1.75;;;;;;;;;;5046276;28;20207;-80
2022/05/09 01:58:13;;;;;;;4.03;2.17;;;;;;;;;;5038969;28;20705;-81
2022/05/09 02:00:40;;;;;;;2.17;1.98;;;;;;;;;;5043796;28;20205;-81
2022/05/09 02:03:07;;;;;;;2.90;1.67;;;;;;;;;;5044328;28;20254;-81
2022/05/09 02:05:34;;;;;;;4.90;1.95;;;;;;;;;;5051892;28;20195;-81
2022/05/09 02:08:01;;;;;;;3.97;1.92;;;;;;;;;;5043253;28;20194;-81
2022/05/09 02:10:28;;;;;;;4.45;2.00;;;;;;;;;;5045004;28;20202;-81
2022/05/09 02:12:57;;;;;;;3.47;1.73;;;;;;;;;;5048769;28;20638;-81
2022/05/09 02:15:31;;;;;;;5.95;2.33;;;;;;;;;;5038914;28;20558;-81
2022/05/09 02:17:58;;;;;;;3.72;2.17;;;;;;;;;;5039954;28;20299;-81
2022/05/09 02:20:25;;;;;;;7.43;2.97;;;;;;;;;;5046947;28;20194;-80
2022/05/09 02:22:52;;;;;;;3.88;2.05;;;;;;;;;;5044390;28;20210;-81
2022/05/09 02:25:30;;;;;;;3.20;2.30;;;;;;;;;;5047575;28;20658;-81
2022/05/09 02:27:58;;;;;;;3.80;1.83;;;;;;;;;;5040790;28;20199;-80
2022/05/09 02:30:26;;;;;;;3.67;1.70;;;;;;;;;;5042851;28;20555;-81
2022/05/09 02:32:54;;;;;;;3.70;1.98;;;;;;;;;;5043396;28;20289;-81
2022/05/09 02:35:21;;;;;;;2.47;1.83;;;;;;;;;;5049815;28;20202;-80
2022/05/09 02:37:51;;;;;;;3.60;1.52;;;;;;;;;;5040250;28;20203;-81
2022/05/09 02:40:19;;;;;;;3.42;1.90;;;;;;;;;;5043124;28;20658;-81
2022/05/09 02:42:46;;;;;;;8.00;2.22;;;;;;;;;;5039001;28;20694;-80
2022/05/09 02:45:14;;;;;;;4.35;2.40;;;;;;;;;;5044373;28;20197;-80
2022/05/09 02:47:42;;;;;;;2.55;1.92;;;;;;;;;;5036905;28;20575;-80
2022/05/09 02:50:10;;;;;;;4.43;2.05;;;;;;;;;;5049164;28;20677;-80
2022/05/09 02:52:37;;;;;;;3.60;1.90;;;;;;;;;;5042592;28;20195;-80
2022/05/09 02:55:05;;;;;;;2.92;2.00;;;;;;;;;;5048963;28;20199;-80
2022/05/09 02:57:32;;;;;;;2.22;1.95;;;;;;;;;;5042465;28;20214;-81
2022/05/09 02:59:59;;;;;;;3.13;1.88;;;;;;;;;;5039900;28;20570;-81
2022/05/09 03:02:28;;;;;;;3.60;1.40;;;;;;;;;;5043137;28;20210;-80
2022/05/09 03:04:54;;;;;;;2.65;2.33;;;;;;;;;;5040455;28;20721;-81
2022/05/09 03:07:22;;;;;;;3.92;1.85;;;;;;;;;;5045190;28;20302;-81
2022/05/09 03:09:50;;;;;;;3.30;1.95;;;;;;;;;;5037672;28;20562;-81
2022/05/09 03:12:19;;;;;;;2.88;2.17;;;;;;;;;;5048047;28;20198;-81
2022/05/09 03:14:47;;;;;;;5.50;2.15;;;;;;;;;;5042730;28;20268;-81
2022/05/09 03:17:14;;;;;;;6.13;1.85;;;;;;;;;;5047826;28;20285;-81
2022/05/09 03:19:42;;;;;;;6.78;2.33;;;;;;;;;;5044444;28;20195;-81
2022/05/09 03:22:09;;;;;;;2.85;1.95;;;;;;;;;;5034110;28;20210;-82
2022/05/09 03:24:37;;;;;;;3.40;2.05;;;;;;;;;;5045841;28;20195;-81
2022/05/09 03:27:06;;;;;;;2.50;1.73;;;;;;;;;;5046321;28;20649;-81
2022/05/09 03:29:34;;;;;;;4.78;2.20;;;;;;;;;;5046821;28;20209;-81
2022/05/09 03:32:01;;;;;;;3.67;1.90;;;;;;;;;;5033482;28;20548;-82
2022/05/09 03:34:29;;;;;;;4.45;1.75;;;;;;;;;;5042992;28;20195;-81
2022/05/09 03:36:58;;;;;;;4.10;2.00;;;;;;;;;;5039534;28;20210;-81
2022/05/09 03:39:25;;;;;;;3.70;2.15;;;;;;;;;;5036088;28;20340;-80
2022/05/09 03:41:52;;;;;;;2.15;1.45;;;;;;;;;;5037724;28;20219;-81
2022/05/09 03:44:19;;;;;;;3.42;1.70;;;;;;;;;;5032745;28;20203;-80
2022/05/09 03:46:46;;;;;;;3.85;2.20;;;;;;;;;;5043964;28;20208;-79
2022/05/09 03:49:14;;;;;;;2.60;1.95;;;;;;;;;;5046472;28;20227;-80
2022/05/09 03:51:41;;;;;;;6.40;2.83;;;;;;;;;;5045475;28;20194;-82
2022/05/09 03:54:09;;;;;;;2.72;1.60;;;;;;;;;;5043243;28;20581;-82
2022/05/09 03:56:36;;;;;;;10.18;2.60;;;;;;;;;;5039739;28;20210;-81
2022/05/09 03:59:03;;;;;;;4.25;2.28;;;;;;;;;;5039130;28;20197;-82
2022/05/09 04:01:31;;;;;;;2.97;2.17;;;;;;;;;;5034110;28;20195;-82
2022/05/09 04:03:59;;;;;;;1.65;1.52;;;;;;;;;;5047415;28;20202;-81
2022/05/09 04:06:26;;;;;;;2.78;1.92;;;;;;;;;;5048311;28;20654;-81
2022/05/09 04:08:53;;;;;;;4.07;1.80;;;;;;;;;;5040958;28;20673;-81
2022/05/09 04:11:22;;;;;;;2.80;2.45;;;;;;;;;;5044400;28;20195;-81
2022/05/09 04:13:49;;;;;;;2.80;1.65;;;;;;;;;;5041131;28;20203;-81
2022/05/09 04:19:01;;;;;;;2.65;2.20;;;;;;;;;;5042765;28;20205;-81
2022/05/09 04:21:29;;;;;;;3.75;1.88;;;;;;;;;;5039055;28;20293;-81
2022/05/09 04:23:58;;;;;;;2.95;1.80;;;;;;;;;;5049315;28;20555;-80
2022/05/09 04:26:27;;;;;;;7.25;1.88;;;;;;;;;;5040130;28;20298;-78
2022/05/09 04:28:54;;;;;;;6.35;2.00;;;;;;;;;;5047561;28;20571;-79
2022/05/09 04:31:22;;;;;;;4.57;1.95;;;;;;;;;;5043856;28;20290;-80
2022/05/09 04:33:49;;;;;;;4.85;2.40;;;;;;;;;;5047319;28;20237;-81
2022/05/09 04:36:17;;;;;;;3.45;2.00;;;;;;;;;;5048492;28;20586;-81
2022/05/09 04:38:45;;;;;;;2.47;1.55;;;;;;;;;;5044339;28;20211;-80
2022/05/09 04:41:13;;;;;;;3.13;2.25;;;;;;;;;;5048051;28;20305;-79
2022/05/09 04:43:42;;;;;;;3.88;2.70;;;;;;;;;;5036133;28;20225;-79
2022/05/09 04:46:09;;;;;;;5.78;2.00;;;;;;;;;;5051228;28;20194;-78
2022/05/09 04:48:38;;;;;;;3.55;1.70;;;;;;;;;;5050122;28;20669;-80
2022/05/09 04:51:05;;;;;;;4.85;2.55;;;;;;;;;;5044341;28;20241;-80
2022/05/09 04:53:32;;;;;;;3.35;2.35;;;;;;;;;;5049305;28;20194;-79
2022/05/09 04:56:00;;;;;;;2.55;1.80;;;;;;;;;;5049571;28;20195;-79
2022/05/09 04:58:27;;;;;;;3.33;2.05;;;;;;;;;;5046035;28;20207;-79
2022/05/09 05:00:56;;;;;;;2.00;1.42;;;;;;;;;;5050711;28;20214;-79
2022/05/09 05:03:24;;;;;;;2.78;2.00;;;;;;;;;;5047246;28;20225;-79
2022/05/09 05:05:52;;;;;;;3.78;2.10;;;;;;;;;;5048399;28;20307;-79
2022/05/09 05:08:19;;;;;;;5.20;1.80;;;;;;;;;;5046138;28;20252;-79
2022/05/09 05:10:52;;;;;;;5.95;2.55;;;;;;;;;;5048059;28;20216;-79
2022/05/09 05:13:20;;;;;;;5.50;2.03;;;;;;;;;;5047866;28;20191;-80
2022/05/09 05:15:47;;;;;;;3.90;2.35;;;;;;;;;;5051348;28;20647;-81
2022/05/09 05:18:19;;;;;;;3.60;2.45;;;;;;;;;;5049380;28;20285;-80
2022/05/09 05:20:46;;;;;;;3.53;2.17;;;;;;;;;;5044996;28;20685;-81
2022/05/09 05:23:13;;;;;;;4.22;2.38;;;;;;;;;;5042386;28;20210;-80
2022/05/09 05:25:41;;;;;;;9.55;2.10;;;;;;;;;;5052399;28;20214;-80
2022/05/09 05:28:08;;;;;;;3.20;2.17;;;;;;;;;;5051585;28;20223;-78
2022/05/09 05:30:36;;;;;;;4.43;2.47;;;;;;;;;;5038729;28;20195;-81
2022/05/09 05:33:04;;;;;;;5.97;3.20;;;;;;;;;;5045548;28;20561;-78
2022/05/09 05:35:33;;;;;;;5.03;2.55;;;;;;;;;;5047585;28;20222;-79
2022/05/09 05:38:00;;;;;;;7.20;2.35;;;;;;;;;;5047328;28;20333;-79
2022/05/09 05:40:27;;;;;;;3.60;2.13;;;;;;;;;;5047797;28;20206;-79
2022/05/09 05:42:54;;;;;;;3.95;2.35;;;;;;;;;;5049437;28;20234;-80
2022/05/09 05:45:22;;;;;;;5.35;2.60;;;;;;;;;;5048720;28;20201;-77
2022/05/09 05:47:49;;;;;;;1.80;1.58;;;;;;;;;;5040432;28;20211;-80
2022/05/09 05:50:18;;;;;;;2.90;1.90;;;;;;;;;;5049933;28;20199;-79
2022/05/09 05:52:46;;;;;;;4.30;2.30;;;;;;;;;;5048339;28;20318;-79
2022/05/09 05:55:13;;;;;;;4.43;2.10;;;;;;;;;;5050282;28;20222;-82
2022/05/09 05:57:42;;;;;;;3.70;1.55;;;;;;;;;;5043245;28;20691;-78
2022/05/09 06:00:11;;;;;;;2.92;1.63;;;;;;;;;;5047455;28;20203;-80
2022/05/09 06:02:39;;;;;;;2.90;1.70;;;;;;;;;;5052381;28;20878;-78
2022/05/09 06:05:07;;;;;;;4.35;1.83;;;;;;;;;;5045346;28;20195;-79
2022/05/09 06:07:34;;;;;;;1.50;1.33;;;;;;;;;;5036197;28;20202;-80
2022/05/09 06:10:02;;;;;;;2.13;1.92;;;;;;;;;;5046297;28;20205;-78
2022/05/09 06:12:30;;;;;;;4.32;1.77;;;;;;;;;;5039915;28;20207;-80
2022/05/09 06:17:42;;;;;;;3.13;1.85;;;;;;;;;;5036228;28;20194;-81
2022/05/09 06:20:11;;;;;;;3.88;1.95;;;;;;;;;;5034856;28;20200;-82
2022/05/09 06:22:38;;;;;;;2.90;2.00;;;;;;;;;;5035886;28;20226;-81
2022/05/09 06:25:09;;;;;;;2.42;1.67;;;;;;;;;;5034608;28;20225;-82
2022/05/09 06:27:36;;;;;;;2.70;1.90;;;;;;;;;;5044978;28;20219;-82
2022/05/09 06:30:05;;;;;;;4.05;2.20;;;;;;;;;;5033399;28;20199;-82
2022/05/09 06:32:32;;;;;;;2.60;2.20;;;;;;;;;;5037737;28;20285;-81
2022/05/09 06:35:01;;;;;;;2.75;1.60;;;;;;;;;;5036178;28;20203;-80
2022/05/09 06:37:29;;;;;;;2.33;1.42;;;;;;;;;;5042734;28;20206;-82
2022/05/09 06:39:56;;;;;;;3.33;1.85;;;;;;;;;;5036850;28;20199;-84
2022/05/09 06:42:24;;;;;;;4.50;1.90;;;;;;;;;;5044993;28;20219;-84
2022/05/09 06:44:51;;;;;;;2.55;2.00;;;;;;;;;;5038802;28;20730;-82
2022/05/09 06:47:18;;;;;;;3.17;1.33;;;;;;;;;;5040587;28;20229;-83
2022/05/09 06:49:45;;;;;;;9.25;1.63;;;;;;;;;;5041624;28;20203;-84
2022/05/09 06:52:12;;;;;;;3.78;1.70;;;;;;;;;;5038611;28;20203;-84
2022/05/09 06:54:39;;;;;;;3.38;1.75;;;;;;;;;;5039809;28;20226;-82
2022/05/09 06:57:07;;;;;;;2.50;1.50;;;;;;;;;;5045635;28;20222;-80
2022/05/09 06:59:35;;;;;;;3.85;1.88;;;;;;;;;;5044644;28;20205;-80
2022/05/09 07:02:02;;;;;;;5.90;1.42;;;;;;;;;;5034801;28;20202;-81
2022/05/09 07:04:30;;;;;;;4.50;1.90;;;;;;;;;;5039213;28;20230;-82
2022/05/09 07:06:57;;;;;;;4.43;2.25;;;;;;;;;;5043224;28;20207;-80
2022/05/09 07:09:24;;;;;;;2.25;1.75;;;;;;;;;;5034867;28;20669;-81
2022/05/09 07:11:52;;;;;;;2.00;1.15;;;;;;;;;;5039033;28;20638;-81
2022/05/09 07:14:20;;;;;;;3.03;1.70;;;;;;;;;;5041709;28;20287;-81
2022/05/09 07:16:49;;;;;;;3.22;1.50;;;;;;;;;;5034023;28;20655;-79
2022/05/09 07:19:16;;;;;;;2.70;1.30;;;;;;;;;;5045674;28;20199;-81
2022/05/09 07:21:43;;;;;;;4.85;2.53;;;;;;;;;;5037489;28;20203;-81
2022/05/09 07:24:10;;;;;;;3.35;2.08;;;;;;;;;;5035970;28;20218;-82
2022/05/09 07:26:38;;;;;;;5.78;1.70;;;;;;;;;;5035053;28;20208;-79
2022/05/09 07:29:05;;;;;;;3.60;1.67;;;;;;;;;;5036104;28;20202;-82
2022/05/09 07:31:32;;;;;;;2.20;1.50;;;;;;;;;;5037074;28;20249;-82
2022/05/09 07:34:01;;;;;;;2.35;1.50;;;;;;;;;;5033882;28;20658;-82
2022/05/09 07:36:28;;;;;;;1.55;1.10;;;;;;;;;;5046785;28;20634;-80
2022/05/09 07:38:55;;;;;;;2.20;1.35;;;;;;;;;;5043706;28;20203;-82
2022/05/09 07:41:22;;;;;;;1.80;1.30;;;;;;;;;;5036432;28;20229;-80
2022/05/09 07:43:50;;;;;;;5.40;2.55;;;;;;;;;;5037195;28;20215;-80
2022/05/09 07:46:17;;;;;;;1.48;1.38;;;;;;;;;;5041783;28;20715;-81
2022/05/09 07:48:44;;;;;;;2.85;1.70;;;;;;;;;;5040094;28;20270;-80
2022/05/09 07:51:14;;;;;;;2.65;1.38;;;;;;;;;;5038740;28;20195;-81
2022/05/09 07:53:41;;;;;;;4.95;2.15;;;;;;;;;;5032803;28;20226;-81
2022/05/09 07:56:08;;;;;;;1.95;1.30;;;;;;;;;;5035057;28;20226;-80
2022/05/09 07:58:36;;;;;;;2.22;1.30;;;;;;;;;;5045525;28;20209;-82
2022/05/09 08:01:03;;;;;;;2.22;1.98;;;;;;;;;;5031703;28;20214;-82
2022/05/09 08:03:31;;;;;;;2.15;1.35;;;;;;;;;;5036190;28;20242;-82
2022/05/09 08:06:00;;;;;;;2.58;1.60;;;;;;;;;;5033437;28;20213;-80
2022/05/09 08:08:29;;;;;;;1.80;1.60;;;;;;;;;;5041294;28;20206;-81
2022/05/09 08:10:57;;;;;;;4.15;2.42;;;;;;;;;;5038637;28;20235;-78
2022/05/09 08:13:25;;;;;;;1.67;1.25;;;;;;;;;;5043940;28;20621;-81
2022/05/09 08:15:52;;;;;;;1.92;1.55;;;;;;;;;;5046399;28;20198;-80
2022/05/09 08:18:21;;;;;;;3.90;1.50;;;;;;;;;;5043825;28;20751;-82
2022/05/09 08:20:49;;;;;;;2.25;1.30;;;;;;;;;;5047349;28;20200;-83
2022/05/09 08:23:18;;;;;;;1.70;1.30;;;;;;;;;;5036998;28;20318;-83
2022/05/09 08:25:48;;;;;;;3.25;1.80;;;;;;;;;;5047266;28;20211;-83
2022/05/09 08:28:16;;;;;;;2.13;1.27;;;;;;;;;;5041419;28;20411;-84
2022/05/09 08:30:44;;;;;;;2.20;1.50;;;;;;;;;;5043823;28;20235;-83
2022/05/09 08:33:15;;;;;;;2.25;1.48;;;;;;;;;;5043306;28;20203;-82
2022/05/09 08:35:43;;;;;;;1.70;1.27;;;;;;;;;;5042728;28;20615;-81
2022/05/09 08:38:10;;;;;;;1.77;1.45;;;;;;;;;;5045773;28;20277;-83
2022/05/09 08:40:38;;;;;;;1.75;1.20;;;;;;;;;;5045293;28;20578;-83
2022/05/09 08:43:12;;;;;;;1.95;1.50;;;;;;;;;;5043652;28;20257;-83
2022/05/09 08:45:41;;;;;;;2.30;1.65;;;;;;;;;;5045065;28;20211;-83
2022/05/09 08:48:26;;;;;;;6.57;1.52;;;;;;;;;;5047091;28;20207;-83
2022/05/09 08:51:03;;;;;;;1.80;1.17;;;;;;;;;;5048401;28;20207;-83
2022/05/09 08:53:33;;;;;;;2.20;1.38;;;;;;;;;;5039455;28;20199;-81
2022/05/09 08:56:01;;;;;;;4.18;1.55;;;;;;;;;;5045825;28;20582;-82
2022/05/09 08:58:39;;;;;;;4.80;1.50;;;;;;;;;;5038965;28;20207;-83
2022/05/09 09:01:11;;;;;;;2.30;1.67;;;;;;;;;;5043255;28;20208;-83
2022/05/09 09:03:39;;;;;;;1.80;1.33;;;;;;;;;;5047367;28;20227;-83
2022/05/09 09:06:11;;;;;;;2.30;1.52;;;;;;;;;;5049833;28;20211;-82
2022/05/09 09:08:45;;;;;;;2.30;1.70;;;;;;;;;;5040675;28;20717;-82
2022/05/09 09:11:15;;;;;;;2.22;1.23;;;;;;;;;;5047127;28;20575;-82
2022/05/09 09:13:57;;;;;;;1.48;1.38;;;;;;;;;;5048337;28;20195;-83
2022/05/09 09:16:39;;;;;;;2.63;1.90;;;;;;;;;;5043539;28;20210;-83
2022/05/09 09:19:16;;;;;;;3.78;1.42;;;;;;;;;;5041850;28;20219;-84
2022/05/09 09:21:47;;;;;;;1.80;1.50;;;;;;;;;;5035564;28;20214;-79
2022/05/09 09:24:20;;;;;;;3.60;1.58;;;;;;;;;;5049141;28;20406;-82
2022/05/09 09:26:54;;;;;;;2.40;1.75;;;;;;;;;;5042037;28;20291;-80
2022/05/09 09:29:25;;;;;;;1.90;1.75;;;;;;;;;;5046147;28;20199;-83
2022/05/09 09:31:55;;;;;;;2.88;1.50;;;;;;;;;;5040676;28;20210;-83
2022/05/09 09:34:26;;;;;;;2.83;1.50;;;;;;;;;;5034565;28;20648;-82
2022/05/09 09:37:07;;;;;;;2.92;1.27;;;;;;;;;;5045259;28;20289;-82
2022/05/09 09:39:34;;;;;;;4.72;1.52;;;;;;;;;;5045507;28;20206;-82
2022/05/09 09:42:02;;;;;;;1.90;1.33;;;;;;;;;;5046892;28;20693;-81
2022/05/09 09:44:34;;;;;;;3.22;1.90;;;;;;;;;;5047536;28;20575;-81
2022/05/09 09:47:09;;;;;;;2.90;1.40;;;;;;;;;;5041108;28;20624;-82
2022/05/09 09:49:38;;;;;;;4.28;1.70;;;;;;;;;;5047399;28;20665;-82
2022/05/09 09:52:13;;;;;;;2.50;1.58;;;;;;;;;;5049770;28;20738;-81
2022/05/09 09:54:41;;;;;;;2.85;1.15;;;;;;;;;;5047843;28;20199;-82
2022/05/09 09:57:17;;;;;;;3.63;1.58;;;;;;;;;;5041985;28;20211;-82
2022/05/09 09:59:46;;;;;;;6.32;1.77;;;;;;;;;;5045196;28;20206;-83
2022/05/09 10:02:16;;;;;;;2.97;1.92;;;;;;;;;;5042917;28;20207;-81
2022/05/09 10:04:44;;;;;;;4.45;2.70;;;;;;;;;;5048879;28;20221;-82
2022/05/09 10:07:12;;;;;;;3.75;2.00;;;;;;;;;;5041114;28;20206;-82
2022/05/09 10:09:41;;;;;;;3.40;1.75;;;;;;;;;;5045449;28;20195;-82
2022/05/09 10:12:18;;;;;;;2.75;1.80;;;;;;;;;;5046501;28;20198;-80
2022/05/09 10:14:47;;;;;;;6.47;1.70;;;;;;;;;;5042995;28;20195;-83
2022/05/09 10:17:16;;;;;;;4.65;1.70;;;;;;;;;;5040080;28;20192;-82
2022/05/09 10:19:44;;;;;;;1.85;1.20;;;;;;;;;;5042018;28;20222;-82
2022/05/09 10:24:57;;;;;;;1.70;1.45;;;;;;;;;;5030562;28;20233;-87
2022/05/09 10:27:29;;;;;;;2.58;1.75;;;;;;;;;;5040281;28;20571;-82
2022/05/09 10:29:58;;;;;;;2.28;1.73;;;;;;;;;;5036104;28;20199;-83
2022/05/09 10:32:30;;;;;;;2.30;2.10;;;;;;;;;;5041106;28;20223;-82
2022/05/09 10:35:00;;;;;;;1.85;1.35;;;;;;;;;;5032175;28;20199;-82
2022/05/09 10:37:30;;;;;;;2.33;1.75;;;;;;;;;;5044185;28;20705;-82
2022/05/09 10:40:01;;;;;;;7.43;2.35;;;;;;;;;;5048840;28;20280;-82
2022/05/09 10:42:34;;;;;;;3.80;2.25;;;;;;;;;;5045874;28;20574;-82
2022/05/09 10:45:06;;;;;;;2.45;1.63;;;;;;;;;;5041680;28;20749;-82
2022/05/09 10:47:37;;;;;;;2.33;2.03;;;;;;;;;;5045861;28;20207;-82
2022/05/09 10:50:10;;;;;;;2.50;1.75;;;;;;;;;;5041290;28;20669;-83
2022/05/09 10:52:41;;;;;;;4.38;2.55;;;;;;;;;;5047611;28;20203;-82
2022/05/09 10:55:12;;;;;;;2.75;1.60;;;;;;;;;;5045959;28;20199;-81
2022/05/09 10:57:42;;;;;;;1.92;1.55;;;;;;;;;;5044259;28;20621;-81
2022/05/09 11:00:12;;;;;;;3.03;2.17;;;;;;;;;;5038666;28;20636;-80
2022/05/09 11:02:41;;;;;;;2.78;2.35;;;;;;;;;;5043174;28;20207;-81
2022/05/09 11:05:09;;;;;;;6.35;3.45;;;;;;;;;;5046369;28;20219;-81
2022/05/09 11:07:39;;;;;;;1.95;1.50;;;;;;;;;;5042676;28;20195;-81
2022/05/09 11:10:15;;;;;;;2.10;1.90;;;;;;;;;;5041032;28;20658;-82
2022/05/09 11:12:49;;;;;;;3.10;2.30;;;;;;;;;;5040368;28;20199;-83
2022/05/09 11:15:29;;;;;;;2.20;1.60;;;;;;;;;;5045936;28;20191;-84
2022/05/09 11:18:02;;;;;;;3.25;2.30;;;;;;;;;;5049717;28;20195;-85
2022/05/09 11:20:32;;;;;;;2.58;1.90;;;;;;;;;;5048280;28;20199;-86
2022/05/09 11:23:06;;;;;;;3.38;2.20;;;;;;;;;;5044075;28;20700;-82
2022/05/09 11:25:43;;;;;;;2.75;1.75;;;;;;;;;;5042587;28;20226;-80
2022/05/09 11:28:15;;;;;;;2.88;2.05;;;;;;;;;;5039938;28;20209;-84
2022/05/09 11:30:46;;;;;;;4.07;2.70;;;;;;;;;;5042727;28;20191;-85
2022/05/09 11:33:30;;;;;;;3.35;2.38;;;;;;;;;;5034043;28;20208;-86
2022/05/09 11:36:00;;;;;;;2.60;2.10;;;;;;;;;;5046243;28;20248;-86
2022/05/09 11:38:36;;;;;;;2.30;2.03;;;;;;;;;;5048162;28;20221;-86
2022/05/09 11:41:09;;;;;;;7.30;1.98;;;;;;;;;;5042494;28;20818;-85
2022/05/09 11:43:42;;;;;;;2.58;1.75;;;;;;;;;;5044182;28;20227;-86
2022/05/09 11:46:18;;;;;;;1.92;1.83;;;;;;;;;;5042099;28;20207;-85
2022/05/09 11:48:51;;;;;;;5.40;2.08;;;;;;;;;;5042929;28;20214;-83
2022/05/09 11:51:22;;;;;;;2.83;2.22;;;;;;;;;;5045191;28;20207;-86
2022/05/09 11:53:53;;;;;;;4.25;2.20;;;;;;;;;;5042277;28;20571;-84
2022/05/09 11:56:20;;;;;;;2.47;2.25;;;;;;;;;;5043481;28;20194;-83
2022/05/09 11:58:48;;;;;;;3.00;2.22;;;;;;;;;;5038617;28;20215;-84
2022/05/09 12:01:17;;;;;;;1.85;1.75;;;;;;;;;;5040974;28;20205;-84
2022/05/09 12:04:02;;;;;;;2.28;2.08;;;;;;;;;;5049299;28;20220;-85
2022/05/09 12:06:35;;;;;;;2.55;2.10;;;;;;;;;;5049535;28;20676;-87
2022/05/09 12:09:08;;;;;;;2.88;2.00;;;;;;;;;;5037707;28;20203;-84
2022/05/09 12:11:46;;;;;;;3.80;2.17;;;;;;;;;;5046615;28;20230;-84
2022/05/09 12:14:33;;;;;;;4.60;2.67;;;;;;;;;;5035985;28;20214;-83
2022/05/09 12:17:01;;;;;;;3.03;2.30;;;;;;;;;;5045977;28;20202;-83
2022/05/09 12:19:31;;;;;;;3.65;2.72;;;;;;;;;;5049395;28;20202;-81
2022/05/09 12:22:16;;;;;;;13.25;4.25;;;;;;;;;;5045045;28;20226;-82
2022/05/09 12:24:49;;;;;;;5.13;3.75;;;;;;;;;;5038036;28;20218;-86
2022/05/09 12:27:44;;;;;;;5.85;3.60;;;;;;;;;;5041550;28;20196;-84
2022/05/09 12:30:18;;;;;;;4.53;3.28;;;;;;;;;;5007277;28;20194;-79
2022/05/09 12:32:54;;;;;;;3.63;2.95;;;;;;;;;;5046535;28;20210;-85
2022/05/09 12:35:27;;;;;;;6.32;3.35;;;;;;;;;;5045432;28;20289;-84
2022/05/09 12:37:56;;;;;;;3.80;3.00;;;;;;;;;;5039365;28;20180;-85
2022/05/09 12:40:26;;;;;;;3.33;2.50;;;;;;;;;;5041602;28;20206;-85
2022/05/09 12:42:57;;;;;;;3.88;2.75;;;;;;;;;;5048215;28;20218;-84
2022/05/09 12:45:25;;;;;;;3.38;2.40;;;;;;;;;;5043978;28;20317;-84
2022/05/09 12:47:54;;;;;;;3.42;2.72;;;;;;;;;;5041155;28;20269;-86
2022/05/09 12:50:26;;;;;;;5.90;3.63;;;;;;;;;;5048553;28;20581;-84
2022/05/09 12:53:01;;;;;;;4.28;3.42;;;;;;;;;;5046883;28;20239;-84
2022/05/09 12:58:21;;;;;;;5.00;3.42;;;;;;;;;;5035770;28;20234;-84
2022/05/09 13:00:48;;;;;;;2.85;2.20;;;;;;;;;;5040349;28;20293;-84
2022/05/09 13:03:17;;;;;;;4.57;3.15;;;;;;;;;;5050125;28;20658;-86
2022/05/09 13:05:45;;;;;;;3.15;2.40;;;;;;;;;;5033544;28;20299;-82
2022/05/09 13:08:14;;;;;;;2.83;2.53;;;;;;;;;;5035483;28;20198;-85
2022/05/09 13:10:46;;;;;;;2.95;2.70;;;;;;;;;;5046021;28;20257;-85
2022/05/09 13:13:17;;;;;;;3.70;2.80;;;;;;;;;;5039301;28;20206;-84
2022/05/09 13:15:44;;;;;;;4.53;2.83;;;;;;;;;;5043330;28;20199;-84
2022/05/09 13:18:15;;;;;;;3.15;2.88;;;;;;;;;;5049513;28;20199;-83
2022/05/09 13:20:49;;;;;;;3.70;3.28;;;;;;;;;;5045910;28;20213;-84
2022/05/09 13:23:17;;;;;;;3.55;3.17;;;;;;;;;;5040718;28;20201;-83
2022/05/09 13:25:51;;;;;;;6.75;2.80;;;;;;;;;;5043580;28;20219;-85
2022/05/09 13:28:19;;;;;;;3.03;2.72;;;;;;;;;;5045433;28;20194;-84
2022/05/09 13:30:51;;;;;;;3.60;2.60;;;;;;;;;;5048898;28;20214;-86
2022/05/09 13:33:19;;;;;;;4.05;2.72;;;;;;;;;;5047450;28;20689;-84
2022/05/09 13:35:50;;;;;;;4.68;3.78;;;;;;;;;;5043662;28;20226;-81
2022/05/09 13:38:18;;;;;;;4.45;2.72;;;;;;;;;;5046989;28;20203;-82
2022/05/09 13:40:45;;;;;;;5.10;2.80;;;;;;;;;;5052302;28;20195;-84
2022/05/09 13:43:15;;;;;;;3.75;2.70;;;;;;;;;;5047389;28;20203;-82
2022/05/09 13:45:43;;;;;;;5.32;2.72;;;;;;;;;;5049479;28;20218;-83
2022/05/09 13:48:22;;;;;;;5.22;3.53;;;;;;;;;;5044232;28;20574;-85
2022/05/09 13:50:53;;;;;;;3.33;2.67;;;;;;;;;;5050936;28;20234;-83
2022/05/09 13:53:24;;;;;;;4.55;3.47;;;;;;;;;;5042803;28;20195;-86
2022/05/09 13:55:52;;;;;;;3.13;2.75;;;;;;;;;;5046215;28;20682;-87
2022/05/09 13:58:22;;;;;;;4.63;2.75;;;;;;;;;;5052605;28;20211;-88
2022/05/09 14:00:54;;;;;;;3.17;2.88;;;;;;;;;;5053080;28;20218;-87
2022/05/09 14:03:26;;;;;;;3.42;2.80;;;;;;;;;;5048434;28;20187;-88
2022/05/09 14:06:00;;;;;;;5.72;3.17;;;;;;;;;;5052160;28;20225;-87
2022/05/09 14:08:30;;;;;;;3.75;3.17;;;;;;;;;;5045475;28;20724;-86
2022/05/09 14:11:05;;;;;;;4.70;2.50;;;;;;;;;;5033952;28;20214;-85
2022/05/09 14:13:35;;;;;;;2.67;2.20;;;;;;;;;;5049476;28;20658;-86
2022/05/09 14:16:08;;;;;;;3.75;2.47;;;;;;;;;;5044868;28;20654;-85
2022/05/09 14:18:39;;;;;;;4.40;3.00;;;;;;;;;;5038393;28;20690;-89
2022/05/09 14:21:08;;;;;;;3.50;3.00;;;;;;;;;;5040442;28;20332;-89
2022/05/09 14:23:35;;;;;;;4.60;3.33;;;;;;;;;;5047315;28;20199;-87
2022/05/09 14:31:44;;;;;;;3.00;2.70;;;;;;;;;;5044205;28;20252;-85
2022/05/09 14:34:31;;;;;;;2.80;2.60;;;;;;;;;;5049406;28;20253;-84
2022/05/09 14:37:10;;;;;;;3.60;2.38;;;;;;;;;;5051802;28;20187;-85
2022/05/09 14:39:42;;;;;;;12.65;4.07;;;;;;;;;;5051689;28;20570;-84
2022/05/09 14:42:13;;;;;;;3.65;2.50;;;;;;;;;;5044446;28;20214;-85
2022/05/09 14:44:40;;;;;;;2.80;2.50;;;;;;;;;;5049786;28;20233;-84
2022/05/09 14:47:13;;;;;;;3.20;2.60;;;;;;;;;;5053444;28;20225;-84
2022/05/09 14:49:42;;;;;;;4.68;2.45;;;;;;;;;;5052637;28;20187;-83
2022/05/09 14:52:15;;;;;;;3.20;2.60;;;;;;;;;;5046906;28;20204;-84
2022/05/09 14:54:43;;;;;;;7.70;2.95;;;;;;;;;;5046197;28;20196;-84
2022/05/09 14:57:26;;;;;;;3.25;2.95;;;;;;;;;;5047866;28;20662;-84
2022/05/09 14:59:59;;;;;;;3.80;3.00;;;;;;;;;;5049656;28;20706;-86
2022/05/09 15:02:29;;;;;;;3.35;3.05;;;;;;;;;;5040446;28;20199;-83
2022/05/09 15:04:56;;;;;;;4.03;2.70;;;;;;;;;;5051474;28;20205;-82
2022/05/09 15:07:24;;;;;;;5.15;3.22;;;;;;;;;;5053014;28;20195;-83
2022/05/09 15:09:52;;;;;;;3.97;3.45;;;;;;;;;;5052405;28;20199;-85
2022/05/09 15:12:21;;;;;;;5.22;3.15;;;;;;;;;;5042248;28;20195;-84
2022/05/09 15:14:48;;;;;;;2.92;2.60;;;;;;;;;;5045376;28;20198;-84
2022/05/09 15:17:15;;;;;;;4.63;2.75;;;;;;;;;;5051862;28;20195;-83
2022/05/09 15:19:42;;;;;;;3.05;2.75;;;;;;;;;;5048085;28;20563;-83